Spokane, WA

7:25 PM PDT on May 29, 2015 (GMT -0700)
Spokane International | | Change Station
CLOSE
Current Station
Airport
Location: Spokane,
Elevation: 2365 ft
Nearby Weather Stations

Elev 2365 ft 47.62 °N, 117.53 °W | Updated 32 minutes ago

Mostly Cloudy
Mostly Cloudy
80 °F
Feels Like 80 °F
N
9
Wind Variable Wind from ESE

Today
High -- | Low -- °F
--% Chance of Precip.
Yesterday
High -- | Low -- °F
Precip. -- in
4:58 AM 8:37 PM
Waxing Gibbous, 87% visible
Pressure 29.87 in
Visibility 10.0 miles
Clouds Few 6500 ft
Scattered Clouds 15000 ft
Mostly Cloudy 20000 ft
Dew Point 45 °F
Humidity 29%
Rainfall 0.00 in
Snow Depth Not available.
UV 0 out of 12
Pollen 7.80 out of 12
Air Quality Not available.
Flu Activity Sporadic
METAR KGEG 300153Z 12008KT 10SM FEW065 SCT150 BKN200 27/07 A2991 RMK AO2 SLP113 T02670072

More Conditions Fewer Conditions

Pressure 29.87 in
Visibility 10.0 miles
Clouds Few 6500 ft
Scattered Clouds 15000 ft
Mostly Cloudy 20000 ft
Dew Point 45 °F
Humidity 29%
Rainfall 0.00 in
Snow Depth Not available.
UV 0 out of 12
Pollen 7.80 out of 12
Air Quality Not available.
Flu Activity Sporadic
METAR KGEG 300153Z 12008KT 10SM FEW065 SCT150 BKN200 27/07 A2991 RMK AO2 SLP113 T02670072

More Conditions Fewer Conditions

Nowcast | as of 7:00 PM PDT on May 29, 2015

At 650 PM...a north south line of thunderstorms stretching from Colville south to Roosevelt Lake and Wilbur will reach the Idaho state line bordering Pend Oreille County...and south to Chewelah...Springdale and Reardan by 745 PM. The strongest storms in this line will be capable of producing wind gusts to 35 mph...heavy downpours...dangering lightning and hail. Persons on Lake Roosevelt need to take action from these imminent storms.

×

10-Day Weather Forecast

Almanac

Astronomy

May. 29, 2015 Rise Set
Actual Time
Civil Twilight
Nautical Twilight
Astronomical Twilight
Moon
Length of Visible Light
Length of Day
Tomorrow will be .
, % of the Moon is Illuminated

Today's Extremes

State Highs State Lows

Community

WunderPhotos

Upload Photos

1,825,423 photos uploaded!

WunderBlogs® & News

Nearby

Air Quality

  Air Quality AQ Index Pollutant
Not available.

Snow Depth

Station Depth Elevation

Earthquake Activity

City Distance Mag. Time & Date
Minimum magnitude displayed is 2.5.

Coastal Water Temperatures

Place Temperature

Stations

Nearby Weather Stations

Station Location Temp. Windchill Dew Point Humidity Wind Precip. Elev Updated Type